Terminal Aerodrome Forecast
Issued by NWS

Home | Current Version | Previous Version | Text Only | Print | Product List | Glossary On
Versions: 1 2 3 4 5 6 7 8 9 10 11 12 13 14
157
FTUS43 KMPX 110302 AAA
TAFAXN
TAF AMD
KAXN 110302Z 1103/1124 20005KT P6SM VCSH OVC070
      TEMPO 1104/1106 2SM -SN OVC040
     FM110600 22008KT P6SM OVC070
     FM111000 26009KT P6SM BKN050
     FM111400 33016G24KT P6SM VCSH SCT008 OVC012
     FM111700 34019G28KT P6SM BKN015=

USA.gov is the U.S. government's official web portal to all federal, state and local government web resources and services.